Nome, Texas
Current Conditions -  °F | °C
As of 1:35 PM on Thursday 30 Oct 2014 (Local Time) from KBMT Reporting Station
Clear Clear  
Wind Chill: 75°   Ceiling: Unl
Heat Index: 75°   Visibility: 10mi
Dew Point: 50°   Wind: 6mph
Humidity: 41%   Direction: 30°NNE
Pressure: 30.1"   Gusts: NA
Location:  30.04°N, 94.42°W
Report Text: KBMT 301835Z AUTO 03005KT 10SM CLR 24/10 A3010 RMK AO2 T02370098
Loading
Personal Weather Stations






























Interactive Weather Map
Tropical Storm Tracking
New forecast layout! Learn more

10-Day Weather Forecast

Advertisements
Track Severe Weather on mobile